Flight Track Log - Related Links

Times and Time Zones

All times are in EDT time to prevent confusion due to time zone crossing. See the N143DE flight status page for this flight to view local times or setup timezone preferences in your user account.

Time Position Orientation Groundspeed Altitude Reporting Facility
EDT Latitude Longitude Course Direction KTS MPH feet Rate Location/Type
Fri 03:10:10 PM 30.3925 -89.0561 64° Northeast 136 157 25,000  Level Houston Center
Fri 03:11:12 PM 30.3925 -89.0014 90° East 184 212 2,600 -10,080 Descending Houston Center
Fri 03:12:15 PM 30.4186 -88.9344 66° East 211 243 4,000 1,584 Climbing Houston Center
Fri 03:13:17 PM 30.4419 -88.8692 67° East 219 252 5,900 1,935 Climbing Houston Center
Fri 03:14:19 PM 30.4686 -88.8175 59° Northeast 205 236 8,000 1,887 Climbing Houston Center
Fri 03:15:00 PM 30.5568 -88.6952 64° Northeast  Level FlightAware Approximate
Fri 03:15:21 PM 30.4986 -88.7656 56° Northeast 196 226 9,800  Level Houston Center
Fri 03:16:23 PM 30.5294 -88.7128 56° Northeast 196 226 11,400 1,403 Climbing Houston Center
Fri 03:17:25 PM 30.5664 -88.6433 58° Northeast 204 235 12,700 1,065 Climbing Houston Center
Fri 03:18:27 PM 30.6036 -88.5761 57° Northeast 235 270 13,600 1,403 Climbing Houston Center
Fri 03:19:29 PM 30.6358 -88.5175 57° Northeast 223 257 15,600 1,742 Climbing Houston Center
Fri 03:20:31 PM 30.6633 -88.4656 58° Northeast 196 226 17,200 1,355 Climbing Houston Center
Fri 03:21:33 PM 30.6928 -88.4128 57° Northeast 194 223 18,400 1,113 Climbing Houston Center
Fri 03:22:35 PM 30.7222 -88.3575 58° Northeast 199 229 19,500 1,016 Climbing Houston Center
Fri 03:23:37 PM 30.7331 -88.2706 82° East 229 264 20,500 919 Climbing Houston Center
Fri 03:24:39 PM 30.7406 -88.1939 83° East 239 275 21,400 823 Climbing Houston Center
Fri 03:25:41 PM 30.7456 -88.1175 86° East 241 277 22,200 823 Climbing Houston Center
Fri 03:26:43 PM 30.7489 -88.0392 87° East 244 281 23,100 774 Climbing Houston Center
Fri 03:27:45 PM 30.7525 -87.9594 87° East 249 287 23,800 672 Climbing Houston Center
Fri 03:28:39 PM 30.7558 -87.8719 87° East 243 280 24,400 632 Climbing Jacksonville Center
Fri 03:29:39 PM 30.7608 -87.7947 86° East 255 293 25,000 350 Climbing Jacksonville Center
Fri 03:30:39 PM 30.7661 -87.7081 86° East 260 299 25,100 50 Climbing Jacksonville Center
Fri 03:31:39 PM 30.7719 -87.6142 86° East 271 312 25,100  Level Jacksonville Center
Fri 03:32:39 PM 30.7775 -87.5178 86° East 287 330 25,100  Level Jacksonville Center
Fri 03:33:39 PM 30.7831 -87.4236 86° East 287 330 25,100  Level Jacksonville Center
Fri 03:34:39 PM 30.7906 -87.3297 85° East 287 330 25,100  Level Jacksonville Center
Fri 03:35:39 PM 30.7958 -87.2333 86° East 287 330 25,100  Level Jacksonville Center
Fri 03:36:39 PM 30.8011 -87.1392 86° East 287 330 25,100  Level Jacksonville Center
Fri 03:37:39 PM 30.8064 -87.0453 86° East 287 330 25,100  Level Jacksonville Center
Fri 03:38:39 PM 30.8136 -86.9486 85° East 292 336 25,100  Level Jacksonville Center
Fri 03:39:39 PM 30.8039 -86.8614 97° East 286 329 25,100  Level Jacksonville Center
Fri 03:40:39 PM 30.7708 -86.7778 115° Southeast 273 314 25,100  Level Jacksonville Center
Fri 03:41:39 PM 30.7403 -86.6894 112° Southeast 278 320 25,100  Level Jacksonville Center
Fri 03:42:39 PM 30.7094 -86.6036 113° Southeast 278 320 25,100  Level Jacksonville Center
Fri 03:43:39 PM 30.6783 -86.5203 113° Southeast 278 320 25,100  Level Jacksonville Center
Fri 03:44:39 PM 30.6494 -86.4347 111° Southeast 278 320 25,100  Level Jacksonville Center
Fri 03:45:39 PM 30.6183 -86.3514 113° Southeast 278 320 25,100  Level Jacksonville Center
Fri 03:46:39 PM 30.5914 -86.2661 110° East 278 320 25,100  Level Jacksonville Center
Fri 03:47:39 PM 30.5581 -86.1831 115° Southeast 278 320 25,100  Level Jacksonville Center
Fri 03:48:39 PM 30.5267 -86.1000 114° Southeast 278 320 25,100  Level Jacksonville Center
Fri 03:49:39 PM 30.4956 -86.0169 113° Southeast 278 320 25,100  Level Jacksonville Center
Fri 03:50:39 PM 30.4600 -85.9339 116° Southeast 278 320 25,100  Level Jacksonville Center
Fri 03:51:39 PM 30.4242 -85.8556 118° Southeast 278 320 25,100  Level Jacksonville Center
Fri 03:52:39 PM 30.3864 -85.7750 119° Southeast 283 326 25,100  Level Jacksonville Center
Fri 03:53:39 PM 30.3506 -85.6992 119° Southeast 283 326 25,100  Level Jacksonville Center
Fri 03:54:39 PM 30.3125 -85.6236 120° Southeast 275 316 25,100  Level Jacksonville Center
Fri 03:55:39 PM 30.2575 -85.5569 134° Southeast 261 300 25,100  Level Jacksonville Center
Fri 03:56:39 PM 30.2067 -85.4956 134° Southeast 261 300 25,100  Level Jacksonville Center
Fri 03:57:39 PM 30.1533 -85.4364 136° Southeast 262 302 25,100  Level Jacksonville Center
Fri 03:58:39 PM 30.1086 -85.3800 133° Southeast 262 302 25,100  Level Jacksonville Center
Fri 03:59:39 PM 30.0597 -85.3142 131° Southeast 262 302 25,100  Level Jacksonville Center
Fri 04:00:39 PM 30.0089 -85.2503 133° Southeast 262 302 25,100  Level Jacksonville Center
Fri 04:01:39 PM 29.9556 -85.1867 134° Southeast 267 307 25,100  Level Jacksonville Center
Fri 04:02:39 PM 29.9047 -85.1186 131° Southeast 267 307 25,100  Level Jacksonville Center
Fri 04:03:39 PM 29.8517 -85.0550 134° Southeast 272 313 25,100  Level Jacksonville Center
Fri 04:04:39 PM 29.8006 -84.9892 132° Southeast 272 313 25,100  Level Jacksonville Center
Fri 04:05:39 PM 29.7492 -84.9258 133° Southeast 272 313 25,100  Level Jacksonville Center
Fri 04:06:39 PM 29.6961 -84.8603 133° Southeast 278 320 25,100  Level Jacksonville Center
Fri 04:07:39 PM 29.6447 -84.7947 132° Southeast 273 314 25,100  Level Jacksonville Center
Fri 04:08:39 PM 29.5936 -84.7317 133° Southeast 273 314 25,100  Level Jacksonville Center
Fri 04:09:39 PM 29.5422 -84.6661 132° Southeast 273 314 25,100  Level Jacksonville Center
Fri 04:10:39 PM 29.4889 -84.6033 134° Southeast 273 314 25,100  Level Jacksonville Center
Fri 04:11:39 PM 29.4375 -84.5356 131° Southeast 278 320 25,100  Level Jacksonville Center
Fri 04:12:39 PM 29.3861 -84.4703 132° Southeast 278 320 25,100  Level Jacksonville Center
Fri 04:13:39 PM 29.3328 -84.4053 133° Southeast 278 320 25,100  Level Jacksonville Center
Fri 04:14:39 PM 29.2792 -84.3425 134° Southeast 278 320 25,100  Level Jacksonville Center
Fri 04:15:39 PM 29.2278 -84.2775 132° Southeast 272 313 25,100  Level Jacksonville Center
Fri 04:16:39 PM 29.1761 -84.2125 132° Southeast 272 313 25,100  Level Jacksonville Center
Fri 04:17:39 PM 29.1206 -84.1500 135° Southeast 277 319 25,100  Level Jacksonville Center
Fri 04:18:39 PM 29.0689 -84.0875 133° Southeast 277 319 25,100  Level Jacksonville Center
Fri 04:19:39 PM 29.0194 -84.0228 131° Southeast 277 319 25,100  Level Jacksonville Center
Fri 04:20:39 PM 28.9678 -83.9606 133° Southeast 277 319 25,100  Level Jacksonville Center
Fri 04:21:39 PM 28.9161 -83.8958 132° Southeast 277 319 25,100  Level Jacksonville Center
Fri 04:22:39 PM 28.8644 -83.8361 135° Southeast 277 319 25,100  Level Jacksonville Center
Fri 04:23:39 PM 28.8128 -83.7717 132° Southeast 277 319 25,100  Level Jacksonville Center
Fri 04:24:39 PM 28.7608 -83.7097 134° Southeast 277 319 25,100  Level Jacksonville Center
Fri 04:25:39 PM 28.7111 -83.6500 134° Southeast 277 319 25,100  Level Jacksonville Center
Fri 04:26:39 PM 28.6572 -83.5858 134° Southeast 272 313 25,100  Level Jacksonville Center
Fri 04:27:39 PM 28.6053 -83.5217 133° Southeast 278 320 25,100  Level Jacksonville Center
Fri 04:28:39 PM 28.5556 -83.4597 132° Southeast 270 311 25,100  Level Jacksonville Center
Fri 04:29:39 PM 28.5036 -83.3981 134° Southeast 270 311 25,100  Level Jacksonville Center
Fri 04:30:39 PM 28.4539 -83.3364 133° Southeast 270 311 25,100  Level Jacksonville Center
Fri 04:31:39 PM 28.4019 -83.2819 137° Southeast 277 319 25,100  Level Jacksonville Center
Fri 04:32:39 PM 28.3519 -83.2181 132° Southeast 277 319 25,100  Level Jacksonville Center
Fri 04:33:39 PM 28.3000 -83.1589 135° Southeast 277 319 25,100  Level Jacksonville Center
Fri 04:34:10 PM 28.2706 -83.1186 130° Southeast 278 320 25,100  Level Miami Center
Fri 04:35:10 PM 28.2147 -83.0567 136° Southeast 278 320 25,100  Level Miami Center
Fri 04:36:10 PM 28.1633 -82.9950 133° Southeast 278 320 25,100  Level Miami Center
Fri 04:37:10 PM 28.1117 -82.9311 133° Southeast 273 314 25,100  Level Miami Center
Fri 04:38:10 PM 28.0600 -82.8697 134° Southeast 273 314 25,100  Level Miami Center
Fri 04:39:10 PM 28.0125 -82.8083 131° Southeast 273 314 25,100  Level Miami Center
Fri 04:40:10 PM 27.9608 -82.7492 135° Southeast 273 314 25,100  Level Miami Center
Fri 04:41:10 PM 27.9028 -82.6853 136° Southeast 273 314 25,100 50 Level Miami Center
Fri 04:42:10 PM 27.8336 -82.6958 188° South 234 269 25,200 -50 Climbing Miami Center
Fri 04:43:10 PM 27.7817 -82.7400 217° Southwest 214 246 25,000 -700 Descending Miami Center
Fri 04:44:10 PM 27.7211 -82.7931 218° Southwest 240 276 23,800 -1,050 Descending Miami Center
Fri 04:45:10 PM 27.6653 -82.8347 213° Southwest 264 304 22,900 -1,050 Descending Miami Center
Fri 04:46:10 PM 27.6003 -82.8897 217° Southwest 270 311 21,700 -1,200 Descending Miami Center
Fri 04:47:10 PM 27.5303 -82.9189 200° South 270 311 20,500 -1,100 Descending Miami Center
Fri 04:48:10 PM 27.4589 -82.8778 153° Southeast 250 288 19,500 -950 Descending Miami Center
Fri 04:49:10 PM 27.3958 -82.8394 152° Southeast 271 312 18,600 -900 Descending Miami Center
Fri 04:50:10 PM 27.3208 -82.7911 150° Southeast 277 319 17,700 -850 Descending Miami Center
Fri 04:51:10 PM 27.2536 -82.7503 152° Southeast 277 319 16,900 -850 Descending Miami Center
Fri 04:52:10 PM 27.1842 -82.7094 152° Southeast 277 319 16,000 -900 Descending Miami Center
Fri 04:53:10 PM 27.1172 -82.6664 150° Southeast 277 319 15,100 -850 Descending Miami Center
Fri 04:54:10 PM 27.0478 -82.6256 152° Southeast 277 319 14,300 -850 Descending Miami Center
Fri 04:55:10 PM 26.9847 -82.5853 150° Southeast 277 319 13,400 -850 Descending Miami Center
Fri 04:56:10 PM 26.9175 -82.5447 152° Southeast 277 319 12,600 -800 Descending Miami Center
Fri 04:57:10 PM 26.8564 -82.5069 151° Southeast 267 307 11,800 -650 Descending Miami Center
Fri 04:58:10 PM 26.7869 -82.4639 151° Southeast 267 307 11,300 -500 Descending Miami Center
Fri 04:59:10 PM 26.7239 -82.4236 150° Southeast 272 313 10,800 -600 Descending Miami Center
Fri 05:00:10 PM 26.6586 -82.3858 153° Southeast 272 313 10,100 -700 Descending Miami Center
Fri 05:01:10 PM 26.5933 -82.3433 150° Southeast 272 313 9,400 -650 Descending Miami Center
Fri 05:02:10 PM 26.5347 -82.2942 143° Southeast 265 305 8,800 -600 Descending Miami Center
Fri 05:03:10 PM 26.4736 -82.2494 147° Southeast 265 305 8,200 -600 Descending Miami Center
Fri 05:04:10 PM 26.4192 -82.2031 143° Southeast 271 312 7,600 -600 Descending Miami Center
Fri 05:05:10 PM 26.3686 -82.1522 138° Southeast 266 306 7,000 -600 Descending Miami Center
Fri 05:07:00 PM 26.2959 -82.0253 130° Southeast  Level Estimated
Fri 05:14:00 PM 26.1524 -81.7756 130° Southeast  Level Estimated
Fri 05:15:00 PM 26.1524 -81.7756 130° Southeast  Level Estimated
Fri 05:16:00 PM 26.1524 -81.7756 130° Southeast  Level Estimated
Fri 05:17:00 PM 26.1524 -81.7756 130° Southeast  Level Estimated
Fri 05:18:00 PM 26.1524 -81.7756 130° Southeast  Level Estimated
Fri 05:19:00 PM 26.1524 -81.7756 130° Southeast  Level Estimated
Fri 05:20:00 PM 26.1524 -81.7756 130° Southeast  Level Estimated
Fri 05:21:00 PM 26.1524 -81.7756 130° Southeast  Level Estimated

Login

Don't have an account? Register now (free) for customized features, flight alerts, and more!